Time;durP1;ratioP1;P1;durP2;ratioP2;P2;SDS_P1;SDS_P2;PMS_P1;PMS_P2;Temp;Humidity;BMP_temperature;BMP_pressure;BME280_temperature;BME280_humidity;BME280_pressure;Samples;Min_cycle;Max_cycle;Signal;HPM_P1;HPM_P2
2023/05/12 00:00:15;;;;;;;10.25;6.85;;;13.70;99.90;;;;;;4906581;29;20063;-92
2023/05/12 00:02:41;;;;;;;8.32;6.88;;;13.70;99.90;;;;;;4922814;29;20032;-91
2023/05/12 00:05:07;;;;;;;9.18;7.05;;;13.70;99.90;;;;;;4891334;29;20126;-92
2023/05/12 00:07:33;;;;;;;9.55;7.22;;;13.70;99.90;;;;;;4938603;29;20035;-91
2023/05/12 00:09:59;;;;;;;8.77;7.38;;;13.70;99.90;;;;;;4906704;29;20103;-91
2023/05/12 00:12:25;;;;;;;8.65;7.03;;;13.70;99.90;;;;;;4906332;29;20027;-91
2023/05/12 00:14:50;;;;;;;6.72;5.93;;;13.60;99.90;;;;;;4893396;29;20037;-91
2023/05/12 00:17:16;;;;;;;8.95;7.65;;;13.70;99.90;;;;;;4926260;29;20115;-93
2023/05/12 00:19:42;;;;;;;8.45;6.60;;;13.60;99.90;;;;;;4910735;29;20039;-94
2023/05/12 00:22:11;;;;;;;10.30;7.90;;;13.60;99.90;;;;;;4911095;29;20091;-92
2023/05/12 00:24:38;;;;;;;8.18;6.88;;;13.60;99.90;;;;;;4927299;29;20023;-92
2023/05/12 00:27:05;;;;;;;8.13;6.85;;;13.60;99.90;;;;;;4911019;29;20110;-92
2023/05/12 00:29:31;;;;;;;8.07;6.60;;;13.70;99.90;;;;;;4926220;29;20503;-93
2023/05/12 00:31:57;;;;;;;8.30;6.50;;;13.70;99.90;;;;;;4925505;29;20516;-92
2023/05/12 00:34:23;;;;;;;7.55;6.75;;;13.60;99.90;;;;;;4909999;29;20071;-92
2023/05/12 00:36:48;;;;;;;7.50;6.47;;;13.70;99.90;;;;;;4925396;29;20068;-93
2023/05/12 00:39:14;;;;;;;6.47;5.88;;;13.70;99.90;;;;;;4909955;29;20039;-93
2023/05/12 00:41:39;;;;;;;6.97;6.28;;;13.70;99.90;;;;;;4908131;29;20024;-93
2023/05/12 00:44:05;;;;;;;7.53;6.50;;;13.70;99.90;;;;;;4940741;29;20035;-92
2023/05/12 00:46:31;;;;;;;7.70;5.53;;;13.70;99.90;;;;;;4892209;29;20031;-92
2023/05/12 00:48:57;;;;;;;8.05;6.65;;;13.70;99.90;;;;;;4908018;29;20031;-94
2023/05/12 00:51:25;;;;;;;8.10;6.07;;;13.60;99.90;;;;;;4923999;29;20024;-92
2023/05/12 00:53:51;;;;;;;6.43;5.72;;;13.60;99.90;;;;;;4923480;29;20024;-92
2023/05/12 00:56:18;;;;;;;7.20;5.97;;;13.60;99.90;;;;;;4907975;29;20035;-93
2023/05/12 00:58:44;;;;;;;6.88;5.57;;;13.50;99.90;;;;;;4940387;29;20062;-94
2023/05/12 01:01:10;;;;;;;7.05;5.95;;;13.60;99.90;;;;;;4923326;29;20039;-93
2023/05/12 01:03:36;;;;;;;6.00;5.32;;;13.60;99.90;;;;;;4907695;29;20054;-94
2023/05/12 01:06:25;;;;;;;6.80;5.15;;;13.60;99.90;;;;;;4923617;29;20365;-93
2023/05/12 01:08:52;;;;;;;4.53;4.05;;;13.60;99.90;;;;;;4924927;29;20024;-92
2023/05/12 01:11:17;;;;;;;5.72;4.50;;;13.60;99.90;;;;;;4908231;29;20043;-94
2023/05/12 01:13:43;;;;;;;4.15;3.70;;;13.60;99.90;;;;;;4892261;29;20024;-90
2023/05/12 01:16:12;;;;;;;5.90;4.10;;;13.60;99.90;;;;;;4909687;29;20040;-92
2023/05/12 01:18:41;;;;;;;4.82;3.63;;;13.60;99.90;;;;;;4942165;29;20031;-93
2023/05/12 01:21:08;;;;;;;3.67;3.03;;;13.60;99.90;;;;;;4925259;29;20028;-92
2023/05/12 01:23:41;;;;;;;3.72;2.75;;;13.50;99.90;;;;;;4930538;28;20032;-89
2023/05/12 01:26:10;;;;;;;3.10;2.63;;;13.50;99.90;;;;;;4944594;28;20380;-92
2023/05/12 01:28:38;;;;;;;2.85;2.40;;;13.60;99.90;;;;;;4914568;28;20032;-86
2023/05/12 01:31:05;;;;;;;3.55;2.80;;;13.60;99.90;;;;;;4930038;29;20051;-91
2023/05/12 01:33:32;;;;;;;2.83;2.55;;;13.60;99.90;;;;;;4941744;29;20380;-93
2023/05/12 01:35:58;;;;;;;4.53;2.40;;;13.60;99.90;;;;;;4910895;29;20035;-93
2023/05/12 01:38:25;;;;;;;3.05;2.25;;;13.50;99.90;;;;;;4893919;29;20380;-93
2023/05/12 01:40:51;;;;;;;3.13;2.40;;;13.50;99.90;;;;;;4941369;29;20035;-91
2023/05/12 01:43:17;;;;;;;2.50;2.28;;;13.50;99.90;;;;;;4924599;29;20040;-90
2023/05/12 01:45:42;;;;;;;2.08;1.88;;;13.50;99.90;;;;;;4892395;29;20032;-92
2023/05/12 01:48:08;;;;;;;2.28;2.03;;;13.50;99.90;;;;;;4924205;29;20032;-92
2023/05/12 01:50:34;;;;;;;2.65;2.30;;;13.40;99.90;;;;;;4923959;29;20035;-92
2023/05/12 01:53:00;;;;;;;2.90;2.33;;;13.40;99.90;;;;;;4924116;29;20376;-91
2023/05/12 01:55:26;;;;;;;2.65;2.25;;;13.40;99.90;;;;;;4893227;29;20079;-92
2023/05/12 01:57:51;;;;;;;3.05;2.50;;;13.40;99.90;;;;;;4924263;29;20031;-92
2023/05/12 02:00:17;;;;;;;4.00;3.30;;;13.40;99.90;;;;;;4892534;29;20052;-92
2023/05/12 02:02:43;;;;;;;6.57;3.55;;;13.40;99.90;;;;;;4924031;29;20130;-91
2023/05/12 02:05:12;;;;;;;6.20;3.83;;;13.40;99.90;;;;;;4940602;29;20039;-91
2023/05/12 02:07:37;;;;;;;4.57;3.55;;;13.20;99.90;;;;;;4924765;29;20035;-93
2023/05/12 02:10:03;;;;;;;6.40;3.63;;;13.20;99.90;;;;;;4910056;29;20464;-92
2023/05/12 02:12:29;;;;;;;5.20;4.35;;;13.20;99.90;;;;;;4926250;29;20491;-94
2023/05/12 02:14:55;;;;;;;6.22;4.38;;;13.20;99.90;;;;;;4911094;29;20027;-91
2023/05/12 02:17:20;;;;;;;7.10;5.22;;;13.20;99.90;;;;;;4927466;29;20035;-93
2023/05/12 02:19:48;;;;;;;5.93;4.30;;;13.20;99.90;;;;;;4909628;29;20028;-91
2023/05/12 02:22:14;;;;;;;6.32;4.57;;;13.30;99.90;;;;;;4924909;29;20543;-91
2023/05/12 02:24:40;;;;;;;8.80;5.90;;;13.30;99.90;;;;;;4908055;29;20036;-92
2023/05/12 02:27:05;;;;;;;7.60;5.68;;;13.30;99.90;;;;;;4924354;29;20086;-92
2023/05/12 02:29:31;;;;;;;10.77;6.70;;;13.30;99.90;;;;;;4924110;29;20067;-92
2023/05/12 02:31:56;;;;;;;8.43;6.50;;;13.30;99.90;;;;;;4923643;29;20046;-93
2023/05/12 02:34:22;;;;;;;9.98;7.05;;;13.40;99.90;;;;;;4941027;29;20083;-92
2023/05/12 02:36:48;;;;;;;11.50;8.15;;;13.30;99.90;;;;;;4923478;29;20463;-91
2023/05/12 02:39:13;;;;;;;11.10;8.10;;;13.40;99.90;;;;;;4940561;29;20555;-92
2023/05/12 02:41:39;;;;;;;14.23;9.27;;;13.30;99.90;;;;;;4923843;29;20425;-93
2023/05/12 02:44:05;;;;;;;12.45;8.77;;;13.30;99.90;;;;;;4924233;29;20046;-93
2023/05/12 02:46:30;;;;;;;13.77;9.27;;;13.30;99.90;;;;;;4940729;29;20396;-91
2023/05/12 02:48:56;;;;;;;11.60;8.57;;;13.30;99.90;;;;;;4923194;29;20028;-93
2023/05/12 02:51:22;;;;;;;13.40;10.73;;;13.30;99.90;;;;;;4923403;29;20111;-91
2023/05/12 02:53:47;;;;;;;14.02;11.15;;;13.30;99.90;;;;;;4907674;29;20035;-91
2023/05/12 02:56:13;;;;;;;14.98;11.00;;;13.30;99.90;;;;;;4923652;29;20059;-91
2023/05/12 02:58:38;;;;;;;13.18;10.15;;;13.20;99.90;;;;;;4924876;29;20032;-93
2023/05/12 03:01:04;;;;;;;15.75;11.60;;;13.20;99.90;;;;;;4932243;29;20028;-92
2023/05/12 03:03:30;;;;;;;16.33;12.18;;;13.20;99.90;;;;;;4928298;29;20082;-92
2023/05/12 03:05:55;;;;;;;18.30;12.80;;;13.20;99.90;;;;;;4944529;29;20030;-90
2023/05/12 03:08:21;;;;;;;15.82;11.73;;;13.20;99.90;;;;;;4927595;29;20028;-93
2023/05/12 03:10:47;;;;;;;17.77;12.55;;;13.20;99.90;;;;;;4954986;29;20028;-92
2023/05/12 03:13:13;;;;;;;16.23;11.95;;;13.20;99.90;;;;;;4942393;29;20051;-93
2023/05/12 03:15:38;;;;;;;17.95;12.98;;;13.20;99.90;;;;;;4940491;29;20035;-92
2023/05/12 03:18:04;;;;;;;17.85;13.43;;;13.30;99.90;;;;;;4939192;29;20063;-91
2023/05/12 03:20:30;;;;;;;19.08;13.48;;;13.30;99.90;;;;;;4922546;29;20020;-91
2023/05/12 03:22:56;;;;;;;20.33;14.55;;;13.20;99.90;;;;;;4906752;29;20040;-92
2023/05/12 03:25:22;;;;;;;17.88;12.77;;;13.20;99.90;;;;;;4905726;29;20461;-93
2023/05/12 03:27:48;;;;;;;21.08;14.95;;;13.30;99.90;;;;;;4920812;29;20043;-92
2023/05/12 03:30:13;;;;;;;21.58;15.63;;;13.30;99.90;;;;;;4905057;29;20028;-93
2023/05/12 03:32:39;;;;;;;25.45;16.33;;;13.30;99.90;;;;;;4889356;29;20035;-92
2023/05/12 03:35:06;;;;;;;29.13;17.58;;;13.30;99.90;;;;;;4889123;29;20043;-92
2023/05/12 03:37:32;;;;;;;23.75;16.88;;;13.20;99.90;;;;;;4920858;29;20032;-92
2023/05/12 03:39:57;;;;;;;21.95;16.02;;;13.20;99.90;;;;;;4920719;29;20028;-92
2023/05/12 03:42:23;;;;;;;25.48;17.40;;;13.30;99.90;;;;;;4906549;29;20036;-92
2023/05/12 03:44:52;;;;;;;28.00;19.52;;;13.30;99.90;;;;;;4939296;29;20471;-92
2023/05/12 03:47:18;;;;;;;25.00;18.08;;;13.30;99.90;;;;;;4922053;29;20023;-90
2023/05/12 03:49:43;;;;;;;27.88;19.20;;;13.30;99.90;;;;;;4906308;29;20529;-91
2023/05/12 03:52:09;;;;;;;24.23;18.02;;;13.20;99.90;;;;;;4922315;29;20111;-92
2023/05/12 03:54:35;;;;;;;26.33;18.15;;;13.30;99.90;;;;;;4922380;29;20468;-91
2023/05/12 03:57:01;;;;;;;29.58;20.10;;;13.40;99.90;;;;;;4922504;29;20064;-91
2023/05/12 03:59:30;;;;;;;24.80;18.30;;;13.40;99.90;;;;;;4921554;29;20516;-91
2023/05/12 04:01:58;;;;;;;27.42;20.08;;;13.40;99.90;;;;;;4938773;29;20047;-93
2023/05/12 04:04:27;;;;;;;29.02;20.25;;;13.40;99.90;;;;;;4906251;29;20039;-91
2023/05/12 04:06:52;;;;;;;29.95;20.65;;;13.40;99.90;;;;;;4890487;29;20107;-92
2023/05/12 04:09:20;;;;;;;27.52;19.38;;;13.40;99.90;;;;;;4906049;29;20031;-92
2023/05/12 04:11:45;;;;;;;27.35;19.10;;;13.40;99.90;;;;;;4938637;29;20036;-92
2023/05/12 04:14:11;;;;;;;27.75;21.08;;;13.40;99.90;;;;;;4921764;29;20059;-92
2023/05/12 04:16:37;;;;;;;27.15;20.08;;;13.50;99.90;;;;;;4906367;29;20544;-92
2023/05/12 04:19:06;;;;;;;28.00;20.35;;;13.50;99.90;;;;;;4906293;29;20040;-91
2023/05/12 04:21:32;;;;;;;30.42;21.48;;;13.50;99.90;;;;;;4906259;29;20384;-91
2023/05/12 04:23:58;;;;;;;31.60;21.75;;;13.50;99.90;;;;;;4921271;29;20028;-92
2023/05/12 04:26:23;;;;;;;31.17;22.73;;;13.50;99.90;;;;;;4921825;29;20369;-92
2023/05/12 04:28:49;;;;;;;27.50;20.95;;;13.60;99.90;;;;;;4906241;29;20130;-93
2023/05/12 04:31:15;;;;;;;32.25;22.52;;;13.60;99.90;;;;;;4921826;29;20408;-91
2023/05/12 04:33:40;;;;;;;27.17;19.45;;;13.70;99.90;;;;;;4922267;29;20399;-93
2023/05/12 04:36:06;;;;;;;27.08;19.83;;;13.70;99.90;;;;;;4905565;29;20035;-91
2023/05/12 04:38:32;;;;;;;30.67;21.85;;;13.80;99.90;;;;;;4906358;29;20023;-92
2023/05/12 04:40:58;;;;;;;28.42;22.33;;;13.80;99.90;;;;;;4937383;29;20028;-88
2023/05/12 04:43:24;;;;;;;30.48;22.98;;;13.80;99.90;;;;;;4943617;29;20012;-90
2023/05/12 04:45:52;;;;;;;32.08;23.15;;;13.90;99.90;;;;;;4943603;29;20059;-91
2023/05/12 04:48:18;;;;;;;31.13;22.75;;;13.90;99.90;;;;;;4944171;29;20056;-90
2023/05/12 04:50:44;;;;;;;28.38;22.05;;;13.90;99.90;;;;;;4929934;29;20020;-92
2023/05/12 04:53:10;;;;;;;28.17;21.42;;;14.00;99.90;;;;;;4938868;29;20038;-93
2023/05/12 04:55:36;;;;;;;27.15;21.65;;;14.00;99.90;;;;;;4907953;29;20039;-94
2023/05/12 04:58:02;;;;;;;35.13;25.25;;;14.10;99.90;;;;;;4927023;29;20083;-94
2023/05/12 05:00:35;;;;;;;35.42;27.17;;;14.10;99.90;;;;;;4908256;29;20048;-95
2023/05/12 05:03:01;;;;;;;32.50;23.80;;;14.10;99.90;;;;;;4911960;29;20035;-93
2023/05/12 05:05:27;;;;;;;31.25;23.05;;;14.10;99.90;;;;;;4927135;29;20031;-94
2023/05/12 05:07:52;;;;;;;31.02;23.15;;;14.20;99.90;;;;;;4913739;29;20036;-95
2023/05/12 05:10:21;;;;;;;31.10;23.70;;;14.20;99.90;;;;;;4911502;29;20079;-94
2023/05/12 05:12:46;;;;;;;29.48;22.67;;;14.30;99.90;;;;;;4910252;29;20156;-92
2023/05/12 05:15:12;;;;;;;30.77;23.90;;;14.30;99.90;;;;;;4927251;29;20477;-95
2023/05/12 05:17:48;;;;;;;30.35;23.88;;;14.40;99.90;;;;;;4926784;29;20051;-94
2023/05/12 05:20:13;;;;;;;30.23;21.60;;;14.40;99.90;;;;;;4927720;29;20024;-93
2023/05/12 05:22:39;;;;;;;28.20;21.77;;;14.40;99.90;;;;;;4941032;29;20024;-91
2023/05/12 05:25:06;;;;;;;32.97;24.52;;;14.50;99.90;;;;;;4923041;29;20114;-92
2023/05/12 05:27:31;;;;;;;29.38;22.60;;;14.50;99.90;;;;;;4907075;29;20070;-92
2023/05/12 05:29:57;;;;;;;30.23;21.80;;;14.60;99.90;;;;;;4892042;29;20032;-93
2023/05/12 05:32:23;;;;;;;28.27;22.35;;;14.60;99.90;;;;;;4907122;29;20034;-93
2023/05/12 05:34:49;;;;;;;25.98;20.77;;;14.60;99.90;;;;;;4939947;29;20039;-94
2023/05/12 05:37:14;;;;;;;29.52;22.58;;;14.60;99.90;;;;;;4922719;29;20461;-94
2023/05/12 05:39:40;;;;;;;30.00;23.33;;;14.70;99.90;;;;;;4922804;29;20118;-93
2023/05/12 05:42:06;;;;;;;28.70;22.05;;;14.70;99.90;;;;;;4906603;29;20031;-94
2023/05/12 05:44:32;;;;;;;27.00;21.55;;;14.70;99.90;;;;;;4907079;29;20079;-93
2023/05/12 05:46:57;;;;;;;28.90;23.00;;;14.70;99.90;;;;;;4924381;29;20038;-94
2023/05/12 05:49:23;;;;;;;29.17;23.02;;;14.80;99.90;;;;;;4944539;29;20028;-93
2023/05/12 05:51:49;;;;;;;28.88;23.02;;;14.90;99.90;;;;;;4928707;29;20051;-94
2023/05/12 05:54:24;;;;;;;26.90;21.10;;;14.80;99.90;;;;;;4942100;23;20066;-95
2023/05/12 05:56:50;;;;;;;28.23;22.88;;;14.80;99.90;;;;;;4939026;29;20064;-96
2023/05/12 05:59:15;;;;;;;27.15;21.95;;;14.90;99.90;;;;;;4922546;29;20029;-95
2023/05/12 06:01:41;;;;;;;29.60;23.75;;;14.90;99.90;;;;;;4939058;29;20047;-94
2023/05/12 06:04:07;;;;;;;28.98;22.02;;;14.90;99.90;;;;;;4922398;29;20388;-94
2023/05/12 06:06:32;;;;;;;27.60;23.08;;;14.90;99.90;;;;;;4938510;29;20118;-94
2023/05/12 06:08:58;;;;;;;24.85;21.13;;;15.00;99.90;;;;;;4939148;29;20028;-95
2023/05/12 06:11:24;;;;;;;27.23;22.92;;;15.00;99.90;;;;;;4939148;29;20043;-94
2023/05/12 06:13:50;;;;;;;34.13;26.15;;;15.00;99.90;;;;;;4938160;29;20489;-94
2023/05/12 06:16:15;;;;;;;29.05;25.20;;;15.00;99.90;;;;;;4924192;29;20058;-95
2023/05/12 06:18:41;;;;;;;29.92;23.90;;;15.00;99.90;;;;;;4924856;29;20456;-95
2023/05/12 06:21:09;;;;;;;30.98;24.67;;;15.00;99.90;;;;;;4943054;29;20532;-93
2023/05/12 06:23:35;;;;;;;30.05;24.48;;;15.00;99.90;;;;;;4951888;29;20038;-96
2023/05/12 06:26:01;;;;;;;26.73;22.13;;;15.00;99.90;;;;;;4961462;29;20012;-95
2023/05/12 06:28:27;;;;;;;30.45;23.80;;;15.10;99.90;;;;;;4960880;29;20028;-95
2023/05/12 06:30:52;;;;;;;27.73;23.75;;;15.10;99.90;;;;;;4958744;29;20036;-96
2023/05/12 06:33:20;;;;;;;32.90;24.55;;;15.10;99.90;;;;;;4935990;29;20107;-94
2023/05/12 06:35:46;;;;;;;32.90;25.23;;;15.10;99.90;;;;;;4985258;23;20055;-94
2023/05/12 06:38:12;;;;;;;30.73;23.15;;;15.20;99.90;;;;;;4924374;29;20051;-94
2023/05/12 06:40:38;;;;;;;26.85;22.15;;;15.20;99.90;;;;;;4907159;29;20032;-94
2023/05/12 06:43:04;;;;;;;25.38;20.60;;;15.30;99.90;;;;;;4906924;29;20472;-93
2023/05/12 06:45:30;;;;;;;24.60;20.85;;;15.30;99.90;;;;;;4922188;29;20027;-93
2023/05/12 06:47:56;;;;;;;24.42;20.35;;;15.40;99.90;;;;;;4922372;29;20038;-94
2023/05/12 06:50:22;;;;;;;24.45;20.95;;;15.40;99.90;;;;;;4906204;29;20440;-94
2023/05/12 06:52:47;;;;;;;26.55;20.02;;;15.40;99.90;;;;;;4922128;29;20031;-93
2023/05/12 06:55:18;;;;;;;20.60;18.40;;;15.40;99.90;;;;;;4890072;29;20036;-93
2023/05/12 06:57:44;;;;;;;23.55;18.42;;;15.50;99.90;;;;;;4907045;29;20031;-93
2023/05/12 07:00:10;;;;;;;20.20;17.38;;;15.50;99.90;;;;;;4906108;29;20131;-86
2023/05/12 07:02:36;;;;;;;21.00;17.70;;;15.50;99.90;;;;;;4921565;29;20032;-95
2023/05/12 07:05:01;;;;;;;21.58;18.73;;;15.60;99.90;;;;;;4921751;29;20483;-95
2023/05/12 07:07:30;;;;;;;19.05;17.00;;;15.60;99.90;;;;;;4905423;29;20158;-95
2023/05/12 07:09:56;;;;;;;20.10;15.95;;;15.70;99.90;;;;;;4921127;29;20075;-94
2023/05/12 07:12:21;;;;;;;22.63;17.17;;;15.80;99.90;;;;;;4905614;29;20035;-93
2023/05/12 07:14:52;;;;;;;20.33;16.77;;;15.80;99.90;;;;;;4937673;29;20380;-94
2023/05/12 07:17:24;;;;;;;17.58;15.38;;;15.80;99.90;;;;;;4920847;29;20043;-94
2023/05/12 07:19:59;;;;;;;18.75;15.77;;;15.80;99.90;;;;;;4921009;29;20123;-94
2023/05/12 07:22:28;;;;;;;17.30;15.00;;;15.80;99.90;;;;;;4890891;29;20024;-95
2023/05/12 07:24:57;;;;;;;14.77;12.85;;;15.80;99.90;;;;;;4920472;29;20030;-94
2023/05/12 07:27:34;;;;;;;12.73;11.32;;;15.90;99.90;;;;;;4921338;29;20028;-93
2023/05/12 07:30:00;;;;;;;16.90;13.90;;;15.90;99.90;;;;;;4906376;29;20036;-94
2023/05/12 07:32:38;;;;;;;15.43;13.52;;;15.90;99.90;;;;;;4905285;29;20028;-94
2023/05/12 07:35:07;;;;;;;15.38;12.95;;;16.00;99.90;;;;;;4905492;29;20077;-94
2023/05/12 07:37:32;;;;;;;16.50;13.32;;;15.90;99.90;;;;;;4905363;29;20035;-94
2023/05/12 07:40:04;;;;;;;15.55;12.98;;;16.00;99.90;;;;;;4921432;29;20027;-94
2023/05/12 07:42:30;;;;;;;15.23;13.63;;;16.00;99.90;;;;;;4921438;29;20024;-94
2023/05/12 07:44:59;;;;;;;13.68;11.98;;;16.00;99.90;;;;;;4938493;29;20082;-93
2023/05/12 07:47:28;;;;;;;14.80;13.20;;;16.10;99.90;;;;;;4938531;29;20023;-94
2023/05/12 07:49:54;;;;;;;13.90;12.38;;;16.20;99.90;;;;;;4921618;29;20063;-94
2023/05/12 07:52:58;;;;;;;13.13;11.45;;;16.20;99.90;;;;;;4890862;29;20468;-94
2023/05/12 07:55:25;;;;;;;14.27;12.75;;;16.30;99.90;;;;;;4923255;29;20040;-93
2023/05/12 07:57:51;;;;;;;13.73;12.43;;;16.30;99.90;;;;;;4907456;29;20032;-94
2023/05/12 08:00:20;;;;;;;12.93;11.52;;;16.40;99.90;;;;;;4922041;29;20024;-92
2023/05/12 08:02:45;;;;;;;11.02;9.93;;;16.40;99.90;;;;;;4926184;29;20032;-94
2023/05/12 08:05:29;;;;;;;12.88;11.35;;;16.50;99.90;;;;;;4927288;28;20024;-94
2023/05/12 08:07:58;;;;;;;11.73;10.52;;;16.60;99.90;;;;;;4943976;29;20012;-93
2023/05/12 08:10:28;;;;;;;13.02;11.52;;;16.60;99.90;;;;;;4960334;28;20019;-90
2023/05/12 08:12:59;;;;;;;12.18;10.88;;;16.60;99.90;;;;;;4921541;29;20032;-93
2023/05/12 08:15:28;;;;;;;12.70;11.18;;;16.70;99.90;;;;;;4923087;29;20038;-92
2023/05/12 08:18:01;;;;;;;11.48;9.88;;;16.70;99.90;;;;;;4905266;29;20098;-93
2023/05/12 08:20:33;;;;;;;11.52;10.07;;;16.70;99.90;;;;;;4920538;29;20031;-94
2023/05/12 08:23:26;;;;;;;12.65;9.65;;;16.80;99.90;;;;;;4904724;29;20083;-94
2023/05/12 08:25:52;;;;;;;9.00;8.10;;;16.90;99.90;;;;;;4920920;29;20075;-95
2023/05/12 08:28:21;;;;;;;9.80;8.80;;;17.00;99.90;;;;;;4920161;29;20024;-94
2023/05/12 08:30:52;;;;;;;9.15;8.20;;;17.10;99.90;;;;;;4920258;29;20087;-93
2023/05/12 08:33:18;;;;;;;9.60;8.02;;;17.10;99.90;;;;;;4919860;29;20122;-95
2023/05/12 08:35:44;;;;;;;8.05;7.25;;;17.10;99.90;;;;;;4920991;29;20079;-94
2023/05/12 08:38:09;;;;;;;8.55;6.60;;;17.20;99.90;;;;;;4940753;29;20027;-94
2023/05/12 08:40:52;;;;;;;7.45;6.60;;;17.30;99.90;;;;;;4923484;29;20563;-95
2023/05/12 08:43:43;;;;;;;6.90;5.35;;;17.40;99.90;;;;;;4924168;29;20086;-93
2023/05/12 08:46:12;;;;;;;5.97;5.28;;;17.50;99.90;;;;;;4940758;29;20031;-94
2023/05/12 08:48:53;;;;;;;6.22;4.55;;;17.60;99.90;;;;;;4923685;29;20028;-93
2023/05/12 08:51:21;;;;;;;4.80;4.40;;;17.60;99.90;;;;;;4923522;29;20384;-94
2023/05/12 08:53:52;;;;;;;4.30;3.90;;;17.60;99.90;;;;;;4923545;29;20114;-94
2023/05/12 08:56:21;;;;;;;4.38;3.97;;;17.60;99.90;;;;;;4923696;29;20502;-94
2023/05/12 08:58:52;;;;;;;5.60;4.03;;;17.70;99.90;;;;;;4940394;29;20020;-94
2023/05/12 09:01:19;;;;;;;3.80;3.40;;;17.60;99.90;;;;;;4908265;29;20480;-94
2023/05/12 09:03:45;;;;;;;4.25;3.85;;;17.70;99.90;;;;;;4923220;29;20484;-95
2023/05/12 09:06:12;;;;;;;4.10;3.60;;;17.70;99.90;;;;;;4923494;29;20086;-93
2023/05/12 09:08:39;;;;;;;4.78;3.30;;;17.70;99.90;;;;;;4922782;29;20024;-93
2023/05/12 09:11:09;;;;;;;3.15;2.85;;;17.70;99.90;;;;;;4923139;29;20023;-94
2023/05/12 09:14:02;;;;;;;5.82;3.97;;;17.80;99.90;;;;;;4922568;29;20115;-93
2023/05/12 09:16:48;;;;;;;2.65;2.35;;;17.80;99.90;;;;;;4922124;29;20357;-92
2023/05/12 09:19:21;;;;;;;3.38;3.03;;;17.90;99.90;;;;;;4923081;29;20040;-93
2023/05/12 09:21:49;;;;;;;3.05;2.75;;;17.90;99.90;;;;;;4922667;29;20024;-91
2023/05/12 09:24:15;;;;;;;3.00;2.63;;;17.90;99.90;;;;;;4891731;29;20115;-92
2023/05/12 09:26:54;;;;;;;3.63;2.40;;;17.90;99.90;;;;;;4923184;29;20087;-93
2023/05/12 09:29:21;;;;;;;3.10;2.30;;;17.90;99.90;;;;;;4922975;29;20028;-91
2023/05/12 09:31:54;;;;;;;5.97;2.58;;;17.90;99.90;;;;;;4939755;29;20039;-92
2023/05/12 09:34:39;;;;;;;5.07;2.60;;;17.90;99.90;;;;;;4940168;29;20031;-92
2023/05/12 09:37:12;;;;;;;2.47;2.28;;;18.00;99.90;;;;;;4924044;29;20374;-92
2023/05/12 09:39:38;;;;;;;5.63;2.45;;;18.00;99.90;;;;;;4923767;29;20161;-93
2023/05/12 09:42:19;;;;;;;2.42;2.10;;;18.00;99.90;;;;;;4924235;29;20032;-92
2023/05/12 09:44:48;;;;;;;3.58;2.40;;;18.00;99.90;;;;;;4942121;29;20023;-93
2023/05/12 09:47:14;;;;;;;2.72;2.00;;;18.10;99.90;;;;;;4910416;29;20036;-93
2023/05/12 09:49:50;;;;;;;2.75;2.00;;;18.10;99.90;;;;;;4927297;29;20015;-91
2023/05/12 09:52:21;;;;;;;2.13;1.92;;;18.20;99.90;;;;;;4943484;29;20030;-92
2023/05/12 09:54:47;;;;;;;;;;;18.20;99.90;;;;;;4925111;29;20056;-92
2023/05/12 09:57:15;;;;;;;2.90;2.20;;;18.30;99.90;;;;;;4945166;29;19922;-91
2023/05/12 09:59:43;;;;;;;3.47;2.42;;;18.30;99.90;;;;;;4945466;28;20016;-94
2023/05/12 10:02:11;;;;;;;2.60;2.40;;;18.30;99.90;;;;;;4918448;29;20038;-93
2023/05/12 10:04:59;;;;;;;2.83;2.50;;;18.30;99.90;;;;;;4940112;29;20088;-91
2023/05/12 10:07:27;;;;;;;6.97;3.17;;;18.30;99.90;;;;;;4922691;29;20042;-91
2023/05/12 10:09:56;;;;;;;2.88;2.20;;;18.30;99.90;;;;;;4922427;29;20052;-92
2023/05/12 10:12:21;;;;;;;2.55;2.00;;;18.30;99.90;;;;;;4922368;29;20020;-92
2023/05/12 10:14:50;;;;;;;7.90;3.15;;;18.30;99.90;;;;;;4906210;29;20113;-92
2023/05/12 10:17:18;;;;;;;4.22;2.20;;;18.30;99.90;;;;;;4906881;29;20063;-93
2023/05/12 10:19:46;;;;;;;2.55;2.35;;;18.40;99.90;;;;;;4906337;29;20071;-91
2023/05/12 10:22:14;;;;;;;3.47;2.10;;;18.30;99.90;;;;;;4908111;29;20020;-92
2023/05/12 10:24:40;;;;;;;2.15;1.95;;;18.30;99.90;;;;;;4921898;29;20032;-92
2023/05/12 10:27:07;;;;;;;2.63;2.33;;;18.40;99.90;;;;;;4938569;29;20037;-93
2023/05/12 10:29:33;;;;;;;3.30;2.03;;;18.40;99.90;;;;;;4908915;29;20035;-89
2023/05/12 10:32:00;;;;;;;5.43;2.00;;;18.50;99.90;;;;;;4921796;29;20031;-92
2023/05/12 10:34:40;;;;;;;3.20;2.28;;;18.50;99.90;;;;;;4940476;29;20031;-94
2023/05/12 10:37:09;;;;;;;3.80;2.30;;;18.50;99.90;;;;;;4921766;29;20068;-94
2023/05/12 10:39:37;;;;;;;2.00;1.80;;;18.60;99.90;;;;;;4921891;29;20020;-93
2023/05/12 10:42:07;;;;;;;2.20;2.05;;;18.60;99.90;;;;;;4923386;29;20027;-94
2023/05/12 10:44:34;;;;;;;3.03;2.08;;;18.70;99.90;;;;;;4922174;29;20487;-93
2023/05/12 10:47:14;;;;;;;2.15;1.92;;;18.70;99.90;;;;;;4921747;29;20098;-94
2023/05/12 10:49:41;;;;;;;2.23;2.00;;;18.80;99.90;;;;;;4921586;29;20020;-93
2023/05/12 10:52:07;;;;;;;2.10;1.75;;;18.80;99.90;;;;;;4921537;29;20264;-92
2023/05/12 10:54:43;;;;;;;3.30;2.08;;;18.90;99.90;;;;;;4921371;29;20036;-94
2023/05/12 10:57:14;;;;;;;3.33;2.03;;;18.90;99.90;;;;;;4921570;29;20119;-93
2023/05/12 10:59:50;;;;;;;;;;;19.00;99.90;;;;;;4937718;29;20024;-93
2023/05/12 11:02:18;;;;;;;3.50;2.30;;;19.00;99.90;;;;;;4938527;29;20418;-92
2023/05/12 11:04:49;;;;;;;2.85;2.00;;;19.10;99.90;;;;;;4921297;29;20110;-95
2023/05/12 11:07:19;;;;;;;4.13;2.10;;;19.10;99.90;;;;;;4921156;29;20042;-93
2023/05/12 11:09:46;;;;;;;5.00;2.40;;;19.20;99.90;;;;;;4921353;29;20072;-93
2023/05/12 11:12:13;;;;;;;2.13;2.00;;;19.20;99.90;;;;;;4921501;29;20487;-92
2023/05/12 11:14:41;;;;;;;2.20;2.00;;;19.30;99.90;;;;;;4922129;29;20023;-91
2023/05/12 11:17:08;;;;;;;3.08;2.20;;;19.30;99.90;;;;;;4921269;29;20040;-94
2023/05/12 11:19:34;;;;;;;5.07;2.22;;;19.40;99.90;;;;;;4922398;29;20031;-94
2023/05/12 11:22:08;;;;;;;2.47;2.20;;;19.40;99.90;;;;;;4922579;29;20028;-93
2023/05/12 11:24:35;;;;;;;2.08;1.88;;;19.50;99.90;;;;;;4939696;29;20024;-94
2023/05/12 11:27:03;;;;;;;3.45;1.90;;;19.50;99.90;;;;;;4938990;29;20028;-94
2023/05/12 11:29:29;;;;;;;2.10;1.90;;;19.60;99.90;;;;;;4921981;29;20461;-93
2023/05/12 11:31:55;;;;;;;1.90;1.80;;;19.60;99.90;;;;;;4921937;29;20480;-93
2023/05/12 11:34:22;;;;;;;4.93;1.90;;;19.70;99.90;;;;;;4921979;29;20028;-92
2023/05/12 11:36:51;;;;;;;3.92;2.40;;;19.70;99.90;;;;;;4921089;29;20055;-91
2023/05/12 11:39:25;;;;;;;5.63;2.63;;;19.80;99.90;;;;;;4941400;29;20115;-91
2023/05/12 11:41:51;;;;;;;4.20;2.38;;;19.90;99.90;;;;;;4943274;29;20052;-90
2023/05/12 11:44:18;;;;;;;2.63;2.00;;;19.90;99.90;;;;;;4928165;28;20007;-91
2023/05/12 11:47:09;;;;;;;4.88;3.10;;;19.90;99.90;;;;;;4928154;29;20034;-86
2023/05/12 11:49:48;;;;;;;3.00;2.60;;;20.00;99.90;;;;;;4942471;29;20019;-93
2023/05/12 11:52:14;;;;;;;3.80;2.30;;;20.00;99.90;;;;;;4927903;29;20123;-92
2023/05/12 11:54:57;;;;;;;2.45;2.22;;;20.10;99.90;;;;;;4921660;29;20035;-93
2023/05/12 11:57:30;;;;;;;3.08;2.40;;;20.10;99.90;;;;;;4920964;29;20073;-93
2023/05/12 12:00:05;;;;;;;2.50;1.90;;;20.20;99.90;;;;;;4921038;29;20027;-92
2023/05/12 12:02:32;;;;;;;2.80;2.40;;;20.30;99.90;;;;;;4921207;29;20111;-94
2023/05/12 12:04:58;;;;;;;2.67;2.08;;;20.30;99.90;;;;;;4905087;29;20488;-92
2023/05/12 12:07:37;;;;;;;2.78;2.45;;;20.40;99.90;;;;;;4905124;29;20136;-92
2023/05/12 12:10:18;;;;;;;2.47;2.28;;;20.40;99.90;;;;;;4920892;29;20107;-93
2023/05/12 12:12:51;;;;;;;2.50;2.30;;;20.50;99.90;;;;;;4908785;29;20027;-93
2023/05/12 12:15:17;;;;;;;3.72;2.50;;;20.50;99.90;;;;;;4924914;29;20456;-94
2023/05/12 12:17:43;;;;;;;4.95;2.55;;;20.60;99.90;;;;;;4941059;29;20019;-93
2023/05/12 12:20:16;;;;;;;2.88;2.28;;;20.50;99.90;;;;;;4924439;29;20536;-92
2023/05/12 12:23:10;;;;;;;2.22;2.00;;;20.60;99.90;;;;;;4925176;29;20083;-93
2023/05/12 12:26:07;;;;;;;2.97;2.53;;;20.60;99.90;;;;;;4924747;29;20090;-95
2023/05/12 12:28:43;;;;;;;;;;;;;;;;;;;;;
2023/05/12 12:31:35;;;;;;;2.95;2.50;;;20.60;99.30;;;;;;4941958;29;20026;-95
2023/05/12 12:34:28;;;;;;;;;;;;;;;;;;;;;
2023/05/12 12:36:59;;;;;;;5.35;2.50;;;20.60;99.60;;;;;;4913403;29;20051;-95
2023/05/12 12:39:41;;;;;;;2.33;1.90;;;20.60;99.80;;;;;;4924916;29;20083;-93
2023/05/12 12:42:28;;;;;;;;;;;;;;;;;;;;;
2023/05/12 12:45:18;;;;;;;;;;;;;;;;;;;;;
2023/05/12 12:47:56;;;;;;;;;;;;;;;;;;;;;
2023/05/12 12:50:33;;;;;;;3.13;2.60;;;20.80;99.50;;;;;;4926829;29;20107;-94
2023/05/12 12:53:12;;;;;;;;;;;;;;;;;;;;;